createdAt,value
2019-03-12T00:00:06.590Z,4.70
2019-03-12T00:02:34.135Z,4.50
2019-03-12T00:05:01.771Z,4.70
2019-03-12T00:07:29.345Z,5.57
2019-03-12T00:09:57.055Z,4.80
2019-03-12T00:12:24.592Z,4.50
2019-03-12T00:14:52.185Z,5.13
2019-03-12T00:17:19.782Z,6.57
2019-03-12T00:19:47.685Z,5.13
2019-03-12T00:22:15.265Z,4.80
2019-03-12T00:24:42.877Z,5.10
2019-03-12T00:27:10.494Z,6.03
2019-03-12T00:29:38.123Z,5.60
2019-03-12T00:32:05.724Z,5.10
2019-03-12T00:34:33.334Z,5.37
2019-03-12T00:37:00.921Z,5.87
2019-03-12T00:39:28.587Z,5.57
2019-03-12T00:41:56.204Z,5.37
2019-03-12T00:44:23.840Z,5.60
2019-03-12T00:46:51.455Z,5.60
2019-03-12T00:49:19.044Z,4.73
2019-03-12T00:51:46.667Z,5.47
2019-03-12T00:54:14.294Z,5.97
2019-03-12T00:56:41.859Z,6.40
2019-03-12T00:59:09.496Z,6.83
2019-03-12T01:01:37.071Z,6.47
2019-03-12T01:04:04.691Z,7.53
2019-03-12T01:06:32.306Z,7.80
2019-03-12T01:08:59.950Z,7.00
2019-03-12T01:11:27.573Z,8.10
2019-03-12T01:13:55.243Z,7.77
2019-03-12T01:16:22.820Z,8.57
2019-03-12T01:18:50.471Z,7.47
2019-03-12T01:21:18.081Z,6.67
2019-03-12T01:23:45.767Z,6.60
2019-03-12T01:26:13.336Z,6.83
2019-03-12T01:28:40.951Z,6.60
2019-03-12T01:31:08.549Z,6.13
2019-03-12T01:33:36.146Z,6.03
2019-03-12T01:36:03.806Z,6.40
2019-03-12T01:38:31.385Z,6.33
2019-03-12T01:40:59.009Z,6.07
2019-03-12T01:43:26.683Z,6.93
2019-03-12T01:45:54.358Z,6.40
2019-03-12T01:48:21.944Z,6.03
2019-03-12T01:50:49.557Z,5.97
2019-03-12T01:53:17.163Z,5.83
2019-03-12T01:55:44.837Z,6.57
2019-03-12T01:58:14.628Z,6.43
2019-03-12T02:00:42.016Z,7.10
2019-03-12T02:03:09.595Z,7.20
2019-03-12T02:05:44.567Z,6.80
2019-03-12T02:08:12.171Z,8.00
2019-03-12T02:10:39.786Z,7.17
2019-03-12T02:13:07.496Z,7.27
2019-03-12T02:15:35.162Z,7.40
2019-03-12T02:18:02.743Z,7.97
2019-03-12T02:20:30.354Z,7.77
2019-03-12T02:22:57.949Z,6.90
2019-03-12T02:25:26.073Z,7.23
2019-03-12T02:27:53.624Z,7.23
2019-03-12T02:30:21.970Z,7.47
2019-03-12T02:32:49.595Z,7.90
2019-03-12T02:35:17.224Z,7.73
2019-03-12T02:37:44.794Z,7.70
2019-03-12T02:40:12.633Z,7.77
2019-03-12T02:42:40.222Z,8.40
2019-03-12T02:45:07.888Z,8.63
2019-03-12T02:47:35.452Z,8.10
2019-03-12T02:50:03.082Z,8.87
2019-03-12T02:52:30.681Z,9.50
2019-03-12T02:54:58.307Z,8.87
2019-03-12T02:57:25.902Z,9.27
2019-03-12T02:59:53.519Z,8.77
2019-03-12T03:02:21.111Z,7.40
2019-03-12T03:04:49.071Z,7.97
2019-03-12T03:07:36.210Z,7.87
2019-03-12T03:10:04.562Z,7.90
2019-03-12T03:12:32.178Z,6.80
2019-03-12T03:15:07.419Z,7.50
2019-03-12T03:17:35.057Z,6.23
2019-03-12T03:20:02.771Z,6.23
2019-03-12T03:22:30.364Z,7.17
2019-03-12T03:24:58.070Z,6.80
2019-03-12T03:27:29.113Z,6.60
2019-03-12T03:29:55.068Z,6.87
2019-03-12T03:32:22.666Z,6.43
2019-03-12T03:34:50.284Z,7.10
2019-03-12T03:37:17.907Z,7.10
2019-03-12T03:39:45.555Z,7.43
2019-03-12T03:42:13.207Z,6.60
2019-03-12T03:44:40.834Z,7.13
2019-03-12T03:47:08.439Z,7.87
2019-03-12T03:49:36.030Z,6.97
2019-03-12T03:52:03.664Z,6.77
2019-03-12T03:54:31.322Z,6.37
2019-03-12T03:56:58.980Z,6.70
2019-03-12T03:59:26.573Z,6.07
2019-03-12T04:01:54.220Z,6.13
2019-03-12T04:04:21.823Z,5.93
2019-03-12T04:06:49.467Z,6.23
2019-03-12T04:09:17.072Z,5.70
2019-03-12T04:11:44.680Z,6.47
2019-03-12T04:14:12.269Z,6.23
2019-03-12T04:16:39.896Z,5.30
2019-03-12T04:19:07.454Z,5.30
2019-03-12T04:21:35.104Z,4.83
2019-03-12T04:24:02.702Z,5.30
2019-03-12T04:26:30.310Z,5.43
2019-03-12T04:28:57.898Z,5.17
2019-03-12T04:31:25.566Z,5.00
2019-03-12T04:34:16.586Z,5.27
2019-03-12T04:36:44.525Z,5.63
2019-03-12T04:39:12.156Z,4.20
2019-03-12T04:41:39.739Z,5.00
2019-03-12T04:44:07.357Z,4.90
2019-03-12T04:46:35.017Z,5.10
2019-03-12T04:49:02.623Z,5.03
2019-03-12T04:51:30.238Z,5.00
2019-03-12T04:53:57.853Z,4.73
2019-03-12T04:56:25.499Z,5.13
2019-03-12T04:58:53.082Z,5.10
2019-03-12T05:01:20.691Z,6.10
2019-03-12T05:03:48.268Z,5.53
2019-03-12T05:06:15.897Z,5.20
2019-03-12T05:08:43.480Z,5.10
2019-03-12T05:11:11.095Z,5.17
2019-03-12T05:13:38.732Z,5.57
2019-03-12T05:16:06.342Z,5.50
2019-03-12T05:18:33.994Z,5.07
2019-03-12T05:21:03.947Z,4.80
2019-03-12T05:23:32.951Z,5.03
2019-03-12T05:26:00.549Z,5.10
2019-03-12T05:28:28.134Z,5.70
2019-03-12T05:30:55.785Z,5.37
2019-03-12T05:33:23.377Z,4.60
2019-03-12T05:35:51.008Z,4.50
2019-03-12T05:38:18.589Z,4.43
2019-03-12T05:40:47.639Z,4.83
2019-03-12T05:43:15.270Z,5.03
2019-03-12T05:45:42.894Z,4.70
2019-03-12T05:48:10.548Z,5.17
2019-03-12T05:50:38.177Z,4.50
2019-03-12T05:53:10.947Z,5.00
2019-03-12T05:55:38.582Z,4.33
2019-03-12T05:58:06.244Z,4.67
2019-03-12T06:00:33.826Z,5.00
2019-03-12T06:03:01.468Z,4.70
2019-03-12T06:05:29.144Z,4.63
2019-03-12T06:07:56.807Z,5.10
2019-03-12T06:10:24.403Z,4.70
2019-03-12T06:12:54.322Z,4.87
2019-03-12T06:15:21.943Z,5.10
2019-03-12T06:17:49.595Z,5.10
2019-03-12T06:20:17.290Z,5.30
2019-03-12T06:22:44.941Z,4.20
2019-03-12T06:25:13.146Z,5.60
2019-03-12T06:27:40.783Z,4.60
2019-03-12T06:30:09.632Z,4.83
2019-03-12T06:32:56.339Z,4.67
2019-03-12T06:35:43.520Z,5.17
2019-03-12T06:38:42.906Z,4.37
2019-03-12T06:41:36.056Z,4.40
2019-03-12T06:44:15.703Z,4.40
2019-03-12T06:46:59.832Z,4.53
2019-03-12T06:49:43.006Z,4.00
2019-03-12T06:52:17.818Z,4.20
2019-03-12T06:54:52.923Z,5.30
2019-03-12T06:57:39.135Z,3.87
2019-03-12T07:00:22.668Z,4.50
2019-03-12T07:03:05.903Z,3.80
2019-03-12T07:05:53.620Z,4.67
2019-03-12T07:08:43.534Z,3.70
2019-03-12T07:11:30.654Z,3.90
2019-03-12T07:14:23.994Z,3.93
2019-03-12T07:17:17.138Z,4.17
2019-03-12T07:20:03.065Z,4.60
2019-03-12T07:22:50.192Z,4.50
2019-03-12T07:25:56.391Z,4.53
2019-03-12T07:28:30.334Z,3.83
2019-03-12T07:31:12.148Z,4.60
2019-03-12T07:33:58.037Z,5.27
2019-03-12T07:36:40.357Z,4.60
2019-03-12T07:39:27.800Z,4.83
2019-03-12T07:42:01.963Z,4.70
2019-03-12T07:44:50.083Z,4.30
2019-03-12T07:47:43.176Z,5.30
2019-03-12T07:50:29.115Z,4.30
2019-03-12T07:53:18.518Z,4.57
2019-03-12T07:56:04.417Z,5.10
2019-03-12T07:58:45.250Z,4.70
2019-03-12T08:01:32.222Z,4.63
2019-03-12T08:04:17.892Z,4.63
2019-03-12T08:07:13.339Z,4.57
2019-03-12T08:10:01.114Z,3.80
2019-03-12T08:12:48.531Z,3.97
2019-03-12T08:15:26.315Z,4.20
2019-03-12T08:18:06.196Z,4.30
2019-03-12T08:20:51.996Z,4.67
2019-03-12T08:23:28.569Z,4.90
2019-03-12T08:26:15.871Z,4.37
2019-03-12T08:28:57.166Z,3.43
2019-03-12T08:31:37.452Z,4.40
2019-03-12T08:34:30.345Z,4.20
2019-03-12T08:37:12.024Z,3.53
2019-03-12T08:40:02.284Z,3.60
2019-03-12T08:42:54.062Z,3.50
2019-03-12T08:45:31.254Z,3.53
2019-03-12T08:48:13.985Z,3.20
2019-03-12T08:50:59.995Z,3.40
2019-03-12T08:53:46.370Z,3.17
2019-03-12T08:56:33.551Z,3.90
2019-03-12T08:59:19.547Z,3.03
2019-03-12T09:02:05.240Z,2.70
2019-03-12T09:04:49.284Z,3.03
2019-03-12T09:07:39.379Z,3.20
2019-03-12T09:10:30.094Z,3.63
2019-03-12T09:13:26.249Z,3.47
2019-03-12T09:16:09.751Z,3.93
2019-03-12T09:18:54.097Z,3.10
2019-03-12T09:21:34.745Z,3.30
2019-03-12T09:24:30.699Z,3.43
2019-03-12T09:27:20.389Z,2.87
2019-03-12T09:29:57.659Z,3.17
2019-03-12T09:32:37.265Z,2.60
2019-03-12T09:35:36.900Z,3.00
2019-03-12T09:38:20.975Z,2.57
2019-03-12T09:41:10.910Z,3.20
2019-03-12T09:43:57.988Z,3.33
2019-03-12T09:46:48.121Z,2.70
2019-03-12T09:49:27.377Z,2.50
2019-03-12T09:52:13.298Z,2.90
2019-03-12T09:55:12.765Z,2.73
2019-03-12T09:57:58.734Z,2.53
2019-03-12T10:00:51.799Z,3.03
2019-03-12T10:03:37.258Z,2.67
2019-03-12T10:06:11.747Z,2.97
2019-03-12T10:09:01.135Z,2.80
2019-03-12T10:11:53.985Z,2.63
2019-03-12T10:14:46.200Z,2.63
2019-03-12T10:17:36.143Z,2.40
2019-03-12T10:20:27.226Z,2.40
2019-03-12T10:23:16.463Z,2.60
2019-03-12T10:26:02.125Z,3.00
2019-03-12T10:28:58.262Z,2.53
2019-03-12T10:31:45.348Z,2.70
2019-03-12T10:34:47.780Z,2.67
2019-03-12T10:37:44.030Z,2.83
2019-03-12T10:40:28.054Z,2.77
2019-03-12T10:43:10.663Z,2.40
2019-03-12T10:45:56.273Z,3.03
2019-03-12T10:48:24.212Z,2.97
2019-03-12T10:50:51.888Z,2.73
2019-03-12T10:53:19.962Z,2.63
2019-03-12T10:55:47.603Z,2.60
2019-03-12T10:58:15.237Z,2.57
2019-03-12T11:00:43.821Z,2.43
2019-03-12T11:03:11.422Z,2.60
2019-03-12T11:05:45.777Z,2.67
2019-03-12T11:08:08.433Z,2.50
2019-03-12T11:10:36.049Z,2.67
2019-03-12T11:13:03.753Z,2.63
2019-03-12T11:15:31.501Z,2.23
2019-03-12T11:18:00.692Z,2.77
2019-03-12T11:20:28.574Z,2.33
2019-03-12T11:22:56.161Z,2.37
2019-03-12T11:25:27.777Z,2.90
2019-03-12T11:27:53.166Z,2.90
2019-03-12T11:30:20.826Z,2.40
2019-03-12T11:32:48.505Z,2.67
2019-03-12T11:35:16.140Z,2.53
2019-03-12T11:37:43.789Z,2.53
2019-03-12T11:40:14.415Z,2.47
2019-03-12T11:42:42.047Z,3.10
2019-03-12T11:45:15.437Z,2.77
2019-03-12T11:47:39.149Z,3.20
2019-03-12T11:50:09.105Z,2.73
2019-03-12T11:52:36.729Z,3.20
2019-03-12T11:55:04.570Z,2.90
2019-03-12T11:57:32.153Z,2.77
2019-03-12T11:59:59.777Z,2.73
2019-03-12T12:02:27.369Z,2.63
2019-03-12T12:04:55.020Z,2.40
2019-03-12T12:07:22.629Z,2.93
2019-03-12T12:09:50.506Z,2.87
2019-03-12T12:12:18.238Z,2.50
2019-03-12T12:14:45.888Z,2.03
2019-03-12T12:17:13.491Z,2.67
2019-03-12T12:19:41.172Z,2.10
2019-03-12T12:22:08.715Z,2.10
2019-03-12T12:24:40.211Z,2.63
2019-03-12T12:27:07.831Z,2.83
2019-03-12T12:29:35.447Z,2.33
2019-03-12T12:32:03.049Z,2.23
2019-03-12T12:34:30.625Z,2.27
2019-03-12T12:36:58.277Z,2.50
2019-03-12T12:39:25.933Z,2.00
2019-03-12T12:41:53.547Z,2.60
2019-03-12T12:44:21.193Z,2.33
2019-03-12T12:46:48.852Z,2.43
2019-03-12T12:49:16.865Z,1.93
2019-03-12T12:51:44.490Z,2.33
2019-03-12T12:54:12.079Z,2.40
2019-03-12T12:56:39.694Z,2.60
2019-03-12T12:59:07.616Z,2.37
2019-03-12T13:01:35.415Z,2.73
2019-03-12T13:04:03.218Z,2.77
2019-03-12T13:06:31.030Z,2.27
2019-03-12T13:08:58.874Z,2.40
2019-03-12T13:11:26.881Z,2.20
2019-03-12T13:13:54.750Z,2.67
2019-03-12T13:16:25.487Z,2.07
2019-03-12T13:18:52.415Z,1.97
2019-03-12T13:21:20.316Z,2.23
2019-03-12T13:23:48.170Z,2.00
2019-03-12T13:26:16.079Z,1.87
2019-03-12T13:28:45.161Z,2.07
2019-03-12T13:31:12.836Z,2.40
2019-03-12T13:33:40.903Z,2.20
2019-03-12T13:36:13.654Z,1.77
2019-03-12T13:38:46.747Z,2.70
2019-03-12T13:41:11.145Z,2.10
2019-03-12T13:43:38.945Z,1.80
2019-03-12T13:46:06.851Z,2.10
2019-03-12T13:48:34.728Z,2.00
2019-03-12T13:51:06.424Z,2.23
2019-03-12T13:53:34.213Z,2.37
2019-03-12T13:56:02.147Z,2.03
2019-03-12T13:58:29.853Z,1.90
2019-03-12T14:00:57.472Z,2.07
2019-03-12T14:03:25.268Z,1.80
2019-03-12T14:05:52.917Z,2.20
2019-03-12T14:08:20.624Z,2.40
2019-03-12T14:10:48.257Z,2.17
2019-03-12T14:13:15.897Z,2.37
2019-03-12T14:15:43.533Z,2.13
2019-03-12T14:18:11.262Z,1.93
2019-03-12T14:20:41.120Z,1.90
2019-03-12T14:23:09.673Z,2.17
2019-03-12T14:25:37.459Z,1.87
2019-03-12T14:28:05.531Z,2.20
2019-03-12T14:30:33.345Z,2.20
2019-03-12T14:33:01.219Z,2.30
2019-03-12T14:35:28.983Z,2.20
2019-03-12T14:37:56.877Z,2.37
2019-03-12T14:40:24.724Z,2.20
2019-03-12T14:42:52.503Z,2.10
2019-03-12T14:45:25.247Z,2.57
2019-03-12T14:47:53.073Z,2.30
2019-03-12T14:50:20.710Z,1.97
2019-03-12T14:52:50.754Z,2.30
2019-03-12T14:55:18.325Z,2.37
2019-03-12T14:57:45.933Z,2.23
2019-03-12T15:00:19.253Z,1.93
2019-03-12T15:02:46.896Z,2.10
2019-03-12T15:05:14.495Z,2.53
2019-03-12T15:07:42.135Z,2.00
2019-03-12T15:10:10.410Z,1.93
2019-03-12T15:12:38.052Z,2.43
2019-03-12T15:15:05.857Z,2.03
2019-03-12T15:17:33.509Z,2.30
2019-03-12T15:20:01.105Z,2.07
2019-03-12T15:22:28.734Z,1.93
2019-03-12T15:24:56.383Z,2.10
2019-03-12T15:27:24.038Z,1.90
2019-03-12T15:29:51.671Z,2.00
2019-03-12T15:32:19.275Z,2.23
2019-03-12T15:34:46.908Z,1.87
2019-03-12T15:37:15.384Z,1.77
2019-03-12T15:39:43.136Z,2.37
2019-03-12T15:42:10.765Z,1.87
2019-03-12T15:44:38.400Z,1.90
2019-03-12T15:47:08.778Z,2.30
2019-03-12T15:49:42.548Z,1.97
2019-03-12T15:52:04.826Z,2.10
2019-03-12T15:54:32.456Z,1.90
2019-03-12T15:57:00.083Z,2.07
2019-03-12T15:59:27.757Z,1.70
2019-03-12T16:01:55.350Z,2.00
2019-03-12T16:04:22.979Z,1.77
2019-03-12T16:07:00.610Z,2.00
2019-03-12T16:09:20.075Z,1.40
2019-03-12T16:11:47.663Z,1.63
2019-03-12T16:14:15.291Z,1.77
2019-03-12T16:16:42.875Z,1.80
2019-03-12T16:19:10.552Z,1.90
2019-03-12T16:21:40.393Z,1.80
2019-03-12T16:24:07.586Z,1.80
2019-03-12T16:26:35.196Z,1.77
2019-03-12T16:29:02.798Z,1.60
2019-03-12T16:31:30.439Z,1.90
2019-03-12T16:33:58.046Z,1.80
2019-03-12T16:36:25.738Z,1.87
2019-03-12T16:38:53.355Z,1.93
2019-03-12T16:41:21.003Z,1.90
2019-03-12T16:43:48.589Z,1.50
2019-03-12T16:46:16.202Z,1.90
2019-03-12T16:48:43.818Z,1.70
2019-03-12T16:51:11.467Z,2.00
2019-03-12T16:53:39.068Z,1.83
2019-03-12T16:56:06.719Z,1.47
2019-03-12T16:58:34.335Z,1.77
2019-03-12T17:01:02.014Z,1.90
2019-03-12T17:03:29.610Z,1.60
2019-03-12T17:06:01.701Z,1.93
2019-03-12T17:08:29.371Z,1.83
2019-03-12T17:11:02.400Z,2.17
2019-03-12T17:13:26.558Z,2.10
2019-03-12T17:15:55.145Z,1.80
2019-03-12T17:18:22.925Z,1.77
2019-03-12T17:20:50.537Z,2.00
2019-03-12T17:23:18.152Z,1.97
2019-03-12T17:25:45.742Z,1.60
2019-03-12T17:28:13.342Z,1.80
2019-03-12T17:30:40.925Z,1.97
2019-03-12T17:33:08.595Z,1.93
2019-03-12T17:35:36.184Z,1.80
2019-03-12T17:38:03.831Z,2.00
2019-03-12T17:40:31.469Z,1.83
2019-03-12T17:43:00.685Z,1.83
2019-03-12T17:45:28.304Z,1.70
2019-03-12T17:47:55.996Z,1.70
2019-03-12T17:50:23.566Z,1.90
2019-03-12T17:52:51.512Z,2.10
2019-03-12T17:55:19.098Z,2.03
2019-03-12T17:57:46.717Z,2.43
2019-03-12T18:00:16.098Z,1.93
2019-03-12T18:02:43.711Z,1.60
2019-03-12T18:05:11.713Z,2.00
2019-03-12T18:07:39.516Z,2.30
2019-03-12T18:10:08.595Z,1.87
2019-03-12T18:12:36.237Z,2.30
2019-03-12T18:15:04.977Z,1.70
2019-03-12T18:17:32.630Z,2.07
2019-03-12T18:20:00.384Z,2.17
2019-03-12T18:22:28.332Z,2.10
2019-03-12T18:24:56.092Z,2.10
2019-03-12T18:27:23.752Z,2.03
2019-03-12T18:29:51.374Z,2.10
2019-03-12T18:32:18.985Z,2.33
2019-03-12T18:34:46.622Z,2.73
2019-03-12T18:37:14.319Z,1.97
2019-03-12T18:39:41.960Z,2.13
2019-03-12T18:42:09.614Z,1.80
2019-03-12T18:44:37.212Z,2.17
2019-03-12T18:47:04.855Z,2.00
2019-03-12T18:49:36.481Z,1.87
2019-03-12T18:52:04.106Z,2.40
2019-03-12T18:54:33.982Z,2.47
2019-03-12T18:57:01.557Z,1.97
2019-03-12T18:59:29.241Z,2.40
2019-03-12T19:01:56.810Z,1.90
2019-03-12T19:04:24.594Z,2.00
2019-03-12T19:06:52.183Z,1.97
2019-03-12T19:09:19.815Z,1.63
2019-03-12T19:11:48.674Z,2.27
2019-03-12T19:14:16.652Z,2.17
2019-03-12T19:16:44.316Z,2.33
2019-03-12T19:19:11.972Z,2.27
2019-03-12T19:21:39.560Z,2.50
2019-03-12T19:24:07.221Z,3.57
2019-03-12T19:26:35.106Z,2.50
2019-03-12T19:29:03.539Z,2.57
2019-03-12T19:31:56.459Z,2.00
2019-03-12T19:34:31.816Z,1.80
2019-03-12T19:37:00.293Z,1.90
2019-03-12T19:39:28.412Z,1.97
2019-03-12T19:41:55.998Z,1.90
2019-03-12T19:44:23.969Z,1.83
2019-03-12T19:46:51.627Z,1.90
2019-03-12T19:49:19.389Z,1.60
2019-03-12T19:51:46.995Z,2.13
2019-03-12T19:54:14.732Z,1.63
2019-03-12T19:56:42.314Z,2.03
2019-03-12T19:59:09.971Z,2.10
2019-03-12T20:01:38.853Z,1.90
2019-03-12T20:04:06.437Z,1.90
2019-03-12T20:06:34.172Z,2.07
2019-03-12T20:09:02.003Z,1.80
2019-03-12T20:11:54.679Z,2.47
2019-03-12T20:15:04.330Z,2.47
2019-03-12T20:17:59.562Z,1.97
2019-03-12T20:21:02.314Z,2.13
2019-03-12T20:24:08.854Z,2.10
2019-03-12T20:27:19.978Z,2.47
2019-03-12T20:30:26.672Z,1.97
2019-03-12T20:33:47.518Z,1.67
2019-03-12T20:36:55.574Z,1.80
2019-03-12T20:39:59.665Z,2.10
2019-03-12T20:43:04.838Z,2.03
2019-03-12T20:46:20.093Z,1.87
2019-03-12T20:49:14.053Z,1.70
2019-03-12T20:52:32.486Z,1.90
2019-03-12T20:55:36.968Z,2.03
2019-03-12T20:58:41.887Z,3.47
2019-03-12T21:01:48.963Z,3.20
2019-03-12T21:05:07.381Z,3.10
2019-03-12T21:08:23.458Z,3.63
2019-03-12T21:11:43.870Z,2.33
2019-03-12T21:14:55.541Z,1.00
2019-03-12T21:18:11.301Z,2.00
2019-03-12T21:21:34.886Z,1.57
2019-03-12T21:24:15.644Z,2.03
2019-03-12T21:27:27.077Z,1.83
2019-03-12T21:29:53.719Z,3.10
2019-03-12T21:32:21.274Z,3.60
2019-03-12T21:34:48.983Z,3.53
2019-03-12T21:37:16.732Z,4.03
2019-03-12T21:39:54.583Z,4.70
2019-03-12T21:42:13.836Z,4.70
2019-03-12T21:44:41.418Z,4.67
2019-03-12T21:47:09.169Z,4.80
2019-03-12T21:49:36.774Z,5.03
2019-03-12T21:52:04.938Z,5.13
2019-03-12T21:54:32.533Z,4.57
2019-03-12T21:57:00.184Z,4.10
2019-03-12T21:59:27.749Z,4.13
2019-03-12T22:01:55.379Z,3.80
2019-03-12T22:04:22.944Z,3.90
2019-03-12T22:06:50.562Z,4.20
2019-03-12T22:09:18.180Z,4.20
2019-03-12T22:11:45.832Z,4.50
2019-03-12T22:14:13.416Z,3.77
2019-03-12T22:16:41.144Z,4.13
2019-03-12T22:19:08.744Z,3.90
2019-03-12T22:22:11.149Z,4.37
2019-03-12T22:24:38.790Z,4.30
2019-03-12T22:27:06.405Z,4.13
2019-03-12T22:29:33.975Z,3.70
2019-03-12T22:32:01.591Z,3.80
2019-03-12T22:34:30.293Z,4.00
2019-03-12T22:36:58.099Z,4.00
2019-03-12T22:39:26.938Z,4.20
2019-03-12T22:41:54.598Z,4.60
2019-03-12T22:44:22.207Z,4.30
2019-03-12T22:46:49.825Z,5.03
2019-03-12T22:49:17.429Z,4.20
2019-03-12T22:51:45.032Z,5.07
2019-03-12T22:54:12.610Z,4.17
2019-03-12T22:56:40.322Z,4.73
2019-03-12T22:59:07.899Z,4.63
2019-03-12T23:01:35.478Z,4.50
2019-03-12T23:04:03.100Z,5.27
2019-03-12T23:06:30.674Z,5.53
2019-03-12T23:08:58.296Z,6.50
2019-03-12T23:11:26.088Z,6.40
2019-03-12T23:13:53.757Z,6.83
2019-03-12T23:16:21.347Z,6.37
2019-03-12T23:18:48.965Z,7.07
2019-03-12T23:21:16.577Z,6.80
2019-03-12T23:23:44.198Z,6.70
2019-03-12T23:26:11.828Z,7.47
2019-03-12T23:28:39.392Z,7.53
2019-03-12T23:31:06.979Z,8.10
2019-03-12T23:33:34.582Z,8.20
2019-03-12T23:36:02.226Z,9.33
2019-03-12T23:38:29.804Z,7.80
2019-03-12T23:40:58.962Z,8.97
2019-03-12T23:43:26.638Z,8.57
2019-03-12T23:45:54.260Z,8.13
2019-03-12T23:48:22.254Z,8.57
2019-03-12T23:50:49.858Z,8.40
2019-03-12T23:53:17.564Z,7.63
2019-03-12T23:55:45.113Z,8.10
2019-03-12T23:58:13.974Z,8.53
